Terminal Aerodrome Forecast
Issued by NWS Wilmington, OH

Current Version | Previous Version | Graphics & Text | Print | Product List | Glossary On
Versions: 1 2 3 4 5 6 7 8 9 10 11 12 13 14 15
000
FTUS41 KILN 021100
TAFCMH
TAF
KCMH 021120Z 0212/0312 00000KT P6SM BKN250
     FM021400 26006KT P6SM FEW060 SCT200
     FM022300 21005KT P6SM FEW200=

USA.gov is the U.S. government's official web portal to all federal, state and local government web resources and services.